CheckWX is a tool to help pilots better visualize weather data.  It is not intended as a substitute for an official pre-flight weather briefing.

10:10:54 UTC

EGPI TAF
Islay Airport
Port Ellen, United Kingdom
TAF EGPI 220804Z 2209/2218 09015KT 9999 FEW014 BKN030 PROB40 TEMPO 2209/2212 6000 SHRA BECMG 2212/2216 15009KT TEMPO 2212/2216 6000 SHRA BKN012 PROB30 TEMPO 2212/2215 3000 +SHRA BKN006

Sep-22@
09:00 UTC

Sep-22 @ 09:00 UTC

Sep-22@
12:00 UTC

Sep-22 @ 12:00 UTC

TAF EGPI 220804Z 2209/2218 09015KT 9999 FEW014 BKN030
Wind
  • 090° at 15 KTS
Cloud Levels
  • Few at 1,400' AGL
  • Broken at 3,000' AGL

Sep-22@
09:00 UTC

Sep-22 @ 09:00 UTC

Sep-22@
12:00 UTC

Sep-22 @ 12:00 UTC

PROB40 TEMPO 2209/2212 6000 SHRA

Temporary - 40% Likelihood

Temporary - 40% Likelihood during this time.

Conditions
Rain

Sep-22@
12:00 UTC

Sep-22 @ 12:00 UTC

Sep-22@
15:00 UTC

Sep-22 @ 15:00 UTC

PROB30 TEMPO 2212/2215 3000 +SHRA BKN006

Temporary - 30% Likelihood

Temporary - 30% Likelihood during this time.

Conditions
Heavy Rain
Cloud Levels
  • Broken at 600' AGL

Sep-22@
12:00 UTC

Sep-22 @ 12:00 UTC

Sep-22@
16:00 UTC

Sep-22 @ 16:00 UTC

TEMPO 2212/2216 6000 SHRA BKN012

Temporary

Temporary Changes expected for less than half the time period

Conditions
Rain
Cloud Levels
  • Broken at 1,200' AGL

Sep-22@
12:00 UTC

Sep-22 @ 12:00 UTC

Sep-22@
18:00 UTC

Sep-22 @ 18:00 UTC

BECMG 2212/2216 15009KT

Becoming

Becoming Conditions expected by Sun, Sep 22, 2019 @ 16:00 UTC

Wind
  • 150° at 9 KTS
Cloud Levels
  • Few at 1,400' AGL
  • Broken at 3,000' AGL